Time;durP1;ratioP1;P1;durP2;ratioP2;P2;SDS_P1;SDS_P2;PMS_P1;PMS_P2;Temp;Humidity;BMP_temperature;BMP_pressure;BME280_temperature;BME280_humidity;BME280_pressure;Samples;Min_cycle;Max_cycle;Signal;HPM_P1;HPM_P2
2022/04/26 03:36:42;;;;;;;13.07;8.98;;;;;;;13.60;67.28;100568.53;5023634;28;103984;-49
2022/04/26 03:39:09;;;;;;;10.60;8.00;;;;;;;13.61;67.27;100572.91;5033910;27;101919;-49
2022/04/26 03:41:35;;;;;;;9.90;8.00;;;;;;;13.61;67.15;100578.38;5016795;27;102308;-49
2022/04/26 03:44:02;;;;;;;9.90;8.13;;;;;;;13.62;67.24;100577.25;5028701;28;102369;-49
2022/04/26 03:46:28;;;;;;;9.23;8.25;;;;;;;13.63;67.38;100581.63;5020169;27;103865;-49
2022/04/26 03:48:59;;;;;;;12.15;7.55;;;;;;;13.63;67.19;100578.06;5021078;28;102643;-49
2022/04/26 03:51:25;;;;;;;10.20;8.07;;;;;;;13.64;67.22;100594.19;5028229;28;101947;-49
2022/04/26 03:53:53;;;;;;;10.70;7.88;;;;;;;13.65;67.15;100601.28;5033044;27;102110;-49
2022/04/26 03:56:21;;;;;;;10.32;7.63;;;;;;;13.66;67.19;100602.91;5017614;27;104001;-49
2022/04/26 03:58:48;;;;;;;8.80;7.60;;;;;;;13.66;67.10;100605.63;5013074;28;101872;-49
2022/04/26 04:01:15;;;;;;;7.95;7.15;;;;;;;13.68;67.09;100611.63;5012598;28;102499;-49
2022/04/26 04:03:44;;;;;;;8.10;7.20;;;;;;;13.69;67.13;100613.25;5018773;28;102373;-51
2022/04/26 04:06:13;;;;;;;;;;;;;;;13.71;67.05;100621.19;5023663;28;103556;-49
2022/04/26 04:08:40;;;;;;;7.93;6.47;;;;;;;13.72;67.30;100625.53;5033143;27;101944;-50
2022/04/26 04:11:12;;;;;;;8.15;5.75;;;;;;;13.74;67.26;100619.75;5032718;27;101818;-49
2022/04/26 04:13:39;;;;;;;6.90;6.05;;;;;;;13.75;67.14;100622.22;5021640;27;102541;-49
2022/04/26 04:16:06;;;;;;;7.38;6.22;;;;;;;13.77;67.16;100627.38;5011816;28;103989;-49
2022/04/26 04:21:23;;;;;;;7.45;6.28;;;;;;;13.79;66.98;100630.63;5017879;28;102750;-49
2022/04/26 04:23:50;;;;;;;8.93;6.60;;;;;;;13.81;66.96;100626.50;5013300;28;102744;-49
2022/04/26 04:26:18;;;;;;;8.95;7.07;;;;;;;13.82;67.19;100621.84;5028112;28;103412;-49
2022/04/26 04:28:45;;;;;;;8.67;6.53;;;;;;;13.84;67.12;100625.09;5032953;27;102215;-49
2022/04/26 04:31:12;;;;;;;7.15;6.18;;;;;;;13.84;66.87;100628.63;5023292;27;102562;-49
2022/04/26 04:33:39;;;;;;;7.57;6.07;;;;;;;13.86;67.09;100633.81;5013987;28;101882;-49
2022/04/26 04:36:06;;;;;;;7.50;6.18;;;;;;;13.87;66.93;100638.19;5023833;28;103903;-49
2022/04/26 04:38:34;;;;;;;7.88;6.57;;;;;;;13.89;67.06;100642.25;5016329;28;101953;-49
2022/04/26 04:41:01;;;;;;;7.95;6.70;;;;;;;13.90;67.07;100634.84;5010977;28;102087;-49
2022/04/26 04:43:36;;;;;;;7.53;6.80;;;;;;;13.91;67.00;100642.75;5012988;28;101948;-49
2022/04/26 04:46:03;;;;;;;6.85;6.05;;;;;;;13.93;67.03;100645.22;5017424;28;103995;-48
2022/04/26 04:48:29;;;;;;;8.75;6.70;;;;;;;13.94;67.01;100641.34;5022722;27;102444;-49
2022/04/26 04:50:56;;;;;;;7.82;6.40;;;;;;;13.96;67.00;100641.88;5012780;28;101954;-49
2022/04/26 04:53:23;;;;;;;7.10;6.15;;;;;;;13.96;67.27;100650.09;5032212;27;102093;-49
2022/04/26 04:55:52;;;;;;;8.70;6.03;;;;;;;13.98;67.18;100645.13;5011832;28;103882;-49
2022/04/26 04:58:19;;;;;;;7.65;5.82;;;;;;;14.00;66.80;100644.84;5011906;28;101965;-49
2022/04/26 05:00:47;;;;;;;7.03;6.10;;;;;;;14.01;66.75;100636.34;5016524;28;102377;-49
2022/04/26 05:03:21;;;;;;;7.40;6.22;;;;;;;14.03;66.85;100638.75;5012868;28;102399;-49
2022/04/26 05:05:49;;;;;;;7.32;6.28;;;;;;;14.04;67.16;100643.16;5012056;28;104014;-49
2022/04/26 05:08:15;;;;;;;7.63;6.53;;;;;;;14.04;66.88;100646.69;5032507;27;102181;-49
2022/04/26 05:10:42;;;;;;;7.30;6.00;;;;;;;14.07;67.04;100657.03;5030770;27;102298;-50
2022/04/26 05:13:11;;;;;;;7.65;5.95;;;;;;;14.08;67.11;100653.19;5032986;27;102369;-49
2022/04/26 05:15:38;;;;;;;8.00;6.22;;;;;;;14.11;66.99;100658.06;5031492;27;102947;-48
2022/04/26 05:18:06;;;;;;;6.80;6.10;;;;;;;14.12;67.18;100654.22;5017182;27;102531;-48
2022/04/26 05:20:32;;;;;;;8.57;6.07;;;;;;;14.13;66.78;100653.09;5011223;28;102203;-48
2022/04/26 05:25:45;;;;;;;7.85;6.13;;;;;;;14.17;66.85;100650.59;5010910;28;104040;-52
2022/04/26 05:28:12;;;;;;;5.85;5.25;;;;;;;14.18;66.70;100655.78;5011842;28;102040;-49
2022/04/26 05:30:39;;;;;;;6.53;5.53;;;;;;;14.21;66.97;100648.06;5016906;28;102315;-49
2022/04/26 05:33:06;;;;;;;7.55;6.15;;;;;;;14.21;66.80;100648.91;5014570;27;102327;-49
2022/04/26 05:35:38;;;;;;;6.97;5.65;;;;;;;14.22;66.86;100650.53;5012706;28;103860;-50
2022/04/26 05:38:05;;;;;;;6.10;5.40;;;;;;;14.24;67.08;100655.69;5011120;28;102311;-49
2022/04/26 05:40:32;;;;;;;7.28;5.75;;;;;;;14.26;66.94;100657.03;5027362;28;102640;-49
2022/04/26 05:43:02;;;;;;;6.07;5.47;;;;;;;14.28;67.01;100653.97;5020510;27;101949;-49
2022/04/26 05:45:29;;;;;;;6.30;5.60;;;;;;;14.30;67.01;100660.00;5011186;28;104069;-48
2022/04/26 05:47:55;;;;;;;6.40;5.50;;;;;;;14.30;66.78;100654.50;5018765;28;102059;-49
2022/04/26 05:50:24;;;;;;;8.18;5.38;;;;;;;14.30;66.76;100655.31;5019891;27;102168;-50
2022/04/26 05:52:50;;;;;;;8.00;5.63;;;;;;;14.32;66.83;100661.31;5021305;28;102346;-49
2022/04/26 05:55:19;;;;;;;6.32;5.32;;;;;;;14.34;66.70;100661.00;5030219;27;103933;-49
2022/04/26 05:57:46;;;;;;;6.70;5.10;;;;;;;14.34;67.03;100669.22;5024060;28;103882;-51
2022/04/26 06:00:18;;;;;;;7.40;5.28;;;;;;;14.36;66.85;100670.56;5020101;27;102481;-51
2022/04/26 06:02:46;;;;;;;5.95;5.32;;;;;;;14.37;66.93;100665.91;5025888;28;102430;-49
2022/04/26 06:05:13;;;;;;;6.60;5.13;;;;;;;14.37;66.97;100672.19;5014598;27;103998;-49
2022/04/26 06:07:47;;;;;;;5.28;4.78;;;;;;;14.38;66.84;100673.81;5027419;28;102291;-54
2022/04/26 06:10:14;;;;;;;6.00;5.32;;;;;;;14.40;67.03;100682.53;5026535;27;102311;-50
2022/04/26 06:12:46;;;;;;;5.78;5.00;;;;;;;14.41;67.07;100677.88;5013441;28;102374;-49
2022/04/26 06:15:15;;;;;;;6.10;5.20;;;;;;;14.42;66.81;100684.97;5015433;28;103972;-49
2022/04/26 06:17:44;;;;;;;8.40;6.68;;;;;;;14.43;66.76;100683.88;5016026;28;102371;-48
2022/04/26 06:20:12;;;;;;;8.90;5.00;;;;;;;14.43;67.03;100679.22;5019068;27;102308;-49
2022/04/26 06:22:48;;;;;;;7.65;4.93;;;;;;;14.45;66.93;100681.63;5031791;27;102076;-48
2022/04/26 06:25:15;;;;;;;5.55;5.00;;;;;;;14.45;66.75;100684.38;5027887;27;103916;-51
2022/04/26 06:27:42;;;;;;;5.82;5.32;;;;;;;14.46;67.04;100675.06;5025643;28;102679;-50
2022/04/26 06:30:10;;;;;;;5.47;4.95;;;;;;;14.46;66.85;100675.06;5011429;27;102693;-49
2022/04/26 06:32:42;;;;;;;5.53;5.00;;;;;;;14.46;66.94;100675.06;5025015;27;102268;-49
2022/04/26 06:35:08;;;;;;;5.13;4.63;;;;;;;14.47;67.13;100675.88;5023605;28;103908;-49
2022/04/26 06:37:36;;;;;;;5.25;4.72;;;;;;;14.48;67.02;100675.56;5028824;28;102611;-49
2022/04/26 06:40:05;;;;;;;5.38;4.70;;;;;;;14.48;66.88;100681.03;5040039;27;102230;-49
2022/04/26 06:42:32;;;;;;;5.45;4.95;;;;;;;14.50;66.78;100681.59;5014192;28;102390;-49
2022/04/26 06:45:00;;;;;;;5.20;4.70;;;;;;;14.49;66.83;100690.88;5013713;28;104139;-49
2022/04/26 06:47:27;;;;;;;5.65;4.43;;;;;;;14.51;66.88;100693.38;5013932;28;101968;-49
2022/04/26 06:49:53;;;;;;;5.80;4.72;;;;;;;14.51;66.54;100691.44;5014038;28;101990;-49
2022/04/26 06:52:20;;;;;;;4.65;4.25;;;;;;;14.52;66.85;100695.81;5022102;28;102218;-49
2022/04/26 06:54:47;;;;;;;5.25;4.57;;;;;;;14.54;66.81;100703.72;5013285;27;103965;-49
2022/04/26 06:57:16;;;;;;;4.97;4.40;;;;;;;14.54;66.88;100699.06;5018333;27;102491;-50
2022/04/26 06:59:55;;;;;;;6.10;4.95;;;;;;;14.54;66.52;100696.31;5020578;28;102453;-49
2022/04/26 07:02:22;;;;;;;5.10;4.57;;;;;;;14.55;66.95;100700.69;5034688;27;102632;-49
2022/04/26 07:04:56;;;;;;;5.05;4.60;;;;;;;14.54;66.98;100693.59;5033897;27;103918;-51
2022/04/26 07:07:24;;;;;;;4.47;4.07;;;;;;;14.56;66.91;100691.34;5033051;27;101986;-48
2022/04/26 07:09:51;;;;;;;5.20;4.70;;;;;;;14.57;66.76;100687.53;5032894;27;102257;-51
2022/04/26 07:12:19;;;;;;;5.35;4.75;;;;;;;14.58;66.79;100694.63;5014705;28;102196;-49
2022/04/26 07:14:51;;;;;;;6.43;4.68;;;;;;;14.58;66.88;100702.84;5019597;28;103931;-51
2022/04/26 07:17:18;;;;;;;5.00;4.30;;;;;;;14.60;66.84;100699.78;5029897;27;101995;-48
2022/04/26 07:19:45;;;;;;;5.63;4.32;;;;;;;14.60;66.78;100703.31;5033565;27;101903;-49
2022/04/26 07:22:12;;;;;;;5.45;4.20;;;;;;;14.61;66.96;100704.97;5018144;27;102256;-49
2022/04/26 07:24:41;;;;;;;5.75;5.05;;;;;;;14.62;66.74;100712.06;5012322;28;103906;-49
2022/04/26 07:27:08;;;;;;;4.45;4.03;;;;;;;14.63;66.93;100708.22;5025666;27;101926;-49
2022/04/26 07:29:41;;;;;;;5.00;4.50;;;;;;;14.64;66.82;100714.50;5038174;27;102480;-48
2022/04/26 07:32:13;;;;;;;5.65;4.50;;;;;;;14.64;66.81;100714.50;5033745;28;102213;-48
2022/04/26 07:34:42;;;;;;;4.68;4.22;;;;;;;14.63;66.72;100713.69;5033145;28;103895;-49
2022/04/26 07:37:08;;;;;;;4.57;4.15;;;;;;;14.65;66.84;100722.44;5016711;27;102445;-49
2022/04/26 07:39:38;;;;;;;5.32;4.20;;;;;;;14.66;66.55;100717.75;5014937;27;102466;-49
2022/04/26 07:42:05;;;;;;;5.63;4.30;;;;;;;14.66;66.83;100724.06;5030399;27;102077;-50
2022/04/26 07:44:31;;;;;;;6.32;4.20;;;;;;;14.66;66.82;100721.31;5031876;27;103860;-49
2022/04/26 07:46:59;;;;;;;5.93;4.38;;;;;;;14.68;66.64;100720.19;5018721;27;102262;-49
2022/04/26 07:49:27;;;;;;;4.63;4.22;;;;;;;14.68;66.81;100720.19;5017129;28;103100;-49
2022/04/26 07:51:54;;;;;;;4.13;3.72;;;;;;;14.69;66.48;100732.81;5026325;28;102894;-49
2022/04/26 07:54:21;;;;;;;4.47;3.85;;;;;;;14.69;66.86;100727.31;5021463;28;103563;-49
2022/04/26 07:56:48;;;;;;;4.28;3.88;;;;;;;14.70;66.84;100720.72;5014785;28;102374;-49
2022/04/26 07:59:15;;;;;;;5.28;4.07;;;;;;;14.70;66.86;100723.47;5013626;27;102002;-50
2022/04/26 08:01:42;;;;;;;5.28;4.07;;;;;;;14.72;66.60;100724.00;5013742;28;102603;-49
2022/04/26 08:04:11;;;;;;;4.65;4.25;;;;;;;14.70;66.96;100721.53;5028716;28;104036;-49
2022/04/26 08:06:42;;;;;;;4.45;4.05;;;;;;;14.71;66.89;100719.59;5013426;28;102451;-49
2022/04/26 08:09:10;;;;;;;4.13;3.72;;;;;;;14.71;66.79;100722.34;5013052;28;101929;-49
2022/04/26 08:11:38;;;;;;;4.15;3.58;;;;;;;14.72;66.98;100716.59;5013532;28;102367;-49
2022/04/26 08:14:05;;;;;;;4.75;4.25;;;;;;;14.72;66.57;100733.03;5012025;28;103960;-50
2022/04/26 08:16:33;;;;;;;5.18;4.10;;;;;;;14.73;66.86;100736.56;5013233;28;102250;-50
2022/04/26 08:19:00;;;;;;;5.68;4.18;;;;;;;14.74;66.61;100732.72;5020055;28;103968;-49
2022/04/26 08:21:27;;;;;;;4.03;3.70;;;;;;;14.73;66.53;100728.34;5023251;27;102386;-49
2022/04/26 08:29:26;;;;;;;4.07;3.67;;;;;;;14.73;66.50;100734.63;5011445;28;102564;-49
2022/04/26 08:31:55;;;;;;;4.17;3.77;;;;;;;14.75;66.82;100737.06;5013085;28;102038;-50
2022/04/26 08:34:24;;;;;;;3.90;3.50;;;;;;;14.74;66.65;100724.50;5016078;28;103945;-49
2022/04/26 08:36:53;;;;;;;4.53;4.03;;;;;;;14.75;66.41;100726.09;5022583;27;101952;-48
2022/04/26 08:39:23;;;;;;;3.97;3.50;;;;;;;14.74;66.68;100724.50;5050801;27;102280;-50
2022/04/26 08:41:50;;;;;;;4.00;3.65;;;;;;;14.74;66.87;100729.97;5020602;27;102224;-49
2022/04/26 08:44:16;;;;;;;4.00;3.30;;;;;;;14.76;66.52;100727.75;5017906;28;103841;-48
2022/04/26 08:52:28;;;;;;;3.92;3.53;;;;;;;14.75;66.61;100724.22;5026811;27;102319;-48
2022/04/26 08:54:55;;;;;;;4.22;3.55;;;;;;;14.76;66.56;100722.28;5024712;27;104140;-49
2022/04/26 08:57:23;;;;;;;4.53;3.40;;;;;;;14.77;66.50;100729.38;5013527;27;102381;-53
2022/04/26 08:59:52;;;;;;;5.15;3.53;;;;;;;14.75;66.81;100715.16;5012190;28;102329;-48
2022/04/26 09:02:22;;;;;;;3.38;3.08;;;;;;;14.75;66.84;100726.09;5012095;27;102075;-49
2022/04/26 09:04:50;;;;;;;3.72;3.33;;;;;;;14.76;66.75;100734.03;5016329;28;104007;-49
2022/04/26 09:07:31;;;;;;;3.17;2.92;;;;;;;14.75;66.50;100732.44;5024434;27;102092;-49
2022/04/26 09:10:07;;;;;;;4.20;3.38;;;;;;;14.76;66.38;100722.28;5021969;28;102944;-49
2022/04/26 09:13:09;;;;;;;3.92;3.53;;;;;;;14.77;66.55;100734.84;5015780;28;102629;-49
2022/04/26 09:15:42;;;;;;;3.53;3.22;;;;;;;14.75;66.84;100724.22;5020134;28;104131;-50
2022/04/26 09:18:20;;;;;;;4.82;3.38;;;;;;;14.76;66.79;100745.00;5020618;27;102077;-49
2022/04/26 09:20:51;;;;;;;3.30;3.00;;;;;;;14.76;66.78;100738.72;5015791;27;102580;-49
2022/04/26 09:23:20;;;;;;;;;;;;;;;14.76;66.50;100731.31;5012719;27;102235;-49
2022/04/26 09:25:52;;;;;;;3.45;3.15;;;;;;;14.76;66.39;100733.22;5013761;28;103521;-49
2022/04/26 09:28:23;;;;;;;3.35;3.08;;;;;;;14.75;66.72;100726.94;5028554;28;103210;-49
2022/04/26 09:30:52;;;;;;;3.25;2.95;;;;;;;14.76;66.46;100744.19;5030421;27;102378;-49
2022/04/26 09:33:38;;;;;;;3.38;3.00;;;;;;;14.75;66.70;100745.28;5032149;27;102769;-49
2022/04/26 09:36:09;;;;;;;3.30;3.00;;;;;;;14.75;66.28;100739.81;5028051;28;104834;-49
2022/04/26 09:38:49;;;;;;;3.70;3.30;;;;;;;14.75;66.72;100737.06;5021377;28;102500;-49
2022/04/26 09:41:16;;;;;;;3.17;2.90;;;;;;;14.75;66.39;100737.06;5018631;28;102426;-49
2022/04/26 09:43:54;;;;;;;3.30;3.00;;;;;;;14.75;66.60;100742.53;5032396;27;102310;-48
2022/04/26 09:46:21;;;;;;;2.85;2.60;;;;;;;14.74;66.40;100739.00;5017002;27;104031;-50
2022/04/26 09:48:48;;;;;;;3.50;2.83;;;;;;;14.74;66.49;100740.94;5017208;28;102008;-49
2022/04/26 09:51:16;;;;;;;3.53;2.97;;;;;;;14.74;66.81;100739.00;5018062;27;102450;-49
2022/04/26 09:53:44;;;;;;;3.22;2.92;;;;;;;14.73;66.21;100745.59;5023310;28;102677;-49
2022/04/26 09:56:14;;;;;;;3.03;2.65;;;;;;;14.74;66.65;100743.66;5027887;27;103959;-49
2022/04/26 09:58:42;;;;;;;3.60;2.90;;;;;;;14.74;66.67;100740.94;5031104;27;102481;-50
2022/04/26 10:01:10;;;;;;;3.28;2.78;;;;;;;14.73;66.62;100742.03;5030161;27;102394;-50
2022/04/26 10:03:40;;;;;;;3.43;2.67;;;;;;;14.72;66.77;100737.69;5013596;28;102536;-48
2022/04/26 10:06:27;;;;;;;3.00;2.70;;;;;;;14.72;66.59;100749.44;5022590;28;104729;-49
2022/04/26 10:08:56;;;;;;;2.85;2.55;;;;;;;14.71;66.42;100741.50;5013997;28;102439;-49
2022/04/26 10:11:25;;;;;;;3.65;2.85;;;;;;;14.71;66.66;100744.25;5017847;28;102108;-48
2022/04/26 10:13:53;;;;;;;3.05;2.75;;;;;;;14.70;66.36;100750.84;5016201;28;102294;-49
2022/04/26 10:16:23;;;;;;;3.13;2.80;;;;;;;14.70;66.32;100745.38;5013818;27;104073;-49
2022/04/26 10:19:00;;;;;;;3.13;2.83;;;;;;;14.69;66.53;100750.03;5021748;28;102859;-49
2022/04/26 10:21:46;;;;;;;2.97;2.47;;;;;;;14.68;66.35;100748.44;5017611;28;102421;-48
2022/04/26 10:24:21;;;;;;;3.13;2.83;;;;;;;14.68;66.44;100748.44;5030100;27;102487;-50
2022/04/26 10:26:48;;;;;;;3.42;3.13;;;;;;;14.67;66.27;100746.78;5020917;27;104720;-52
2022/04/26 10:29:20;;;;;;;3.40;2.90;;;;;;;14.67;66.38;100746.78;5029974;28;102092;-50
2022/04/26 10:31:48;;;;;;;3.38;3.08;;;;;;;14.66;66.61;100754.19;5026629;27;101981;-50
2022/04/26 10:34:28;;;;;;;3.20;2.90;;;;;;;14.66;66.31;100750.63;5017310;27;102010;-49
2022/04/26 10:36:59;;;;;;;3.22;2.92;;;;;;;14.66;66.25;100756.94;5026043;27;104057;-49
2022/04/26 10:39:35;;;;;;;3.30;3.00;;;;;;;14.66;66.25;100756.13;5019378;28;102766;-48
2022/04/26 10:42:24;;;;;;;3.08;2.78;;;;;;;14.64;66.43;100753.69;5014425;28;102487;-50
2022/04/26 10:44:51;;;;;;;3.13;2.80;;;;;;;14.64;66.35;100759.16;5017173;28;102065;-53
2022/04/26 10:47:27;;;;;;;2.60;2.40;;;;;;;14.62;66.26;100753.16;5023772;28;103937;-49
2022/04/26 10:49:55;;;;;;;2.70;2.50;;;;;;;14.64;66.13;100755.59;5034134;27;102015;-48
2022/04/26 10:52:41;;;;;;;2.50;2.30;;;;;;;14.63;66.36;100752.03;5028212;27;101918;-49
2022/04/26 10:55:18;;;;;;;2.95;2.63;;;;;;;14.63;66.46;100745.75;5032847;27;102710;-48
2022/04/26 10:57:47;;;;;;;2.58;2.38;;;;;;;14.63;66.29;100757.50;5025003;27;103923;-49
2022/04/26 11:00:16;;;;;;;2.60;2.40;;;;;;;14.63;66.33;100762.19;5018429;28;102545;-48
2022/04/26 11:02:48;;;;;;;2.80;2.47;;;;;;;14.61;66.31;100751.53;5031084;28;102462;-49
2022/04/26 11:05:17;;;;;;;3.92;2.45;;;;;;;14.62;66.47;100758.63;5027574;28;102695;-49
2022/04/26 11:07:49;;;;;;;2.78;2.58;;;;;;;14.62;66.48;100763.31;5022773;27;103924;-49
2022/04/26 11:10:20;;;;;;;2.05;1.95;;;;;;;14.61;66.29;100757.00;5034431;28;101909;-49
2022/04/26 11:12:47;;;;;;;2.83;2.40;;;;;;;14.61;66.28;100759.75;5033393;27;102610;-49
2022/04/26 11:15:15;;;;;;;2.65;2.35;;;;;;;14.59;66.38;100756.47;5034539;27;102114;-49
2022/04/26 11:17:43;;;;;;;2.80;2.60;;;;;;;14.60;66.41;100762.78;5029881;27;103461;-48
2022/04/26 11:20:14;;;;;;;4.07;2.80;;;;;;;14.60;66.20;100754.56;5014853;28;102181;-49
2022/04/26 11:22:46;;;;;;;3.17;2.67;;;;;;;14.59;66.06;100755.69;5017696;28;101905;-48
2022/04/26 11:28:09;;;;;;;2.70;2.50;;;;;;;14.58;66.04;100752.13;5013703;28;103863;-49
2022/04/26 11:30:38;;;;;;;3.75;3.03;;;;;;;14.58;66.30;100751.31;5015151;28;102356;-49
2022/04/26 11:33:06;;;;;;;2.80;2.60;;;;;;;14.57;66.38;100742.28;5014983;28;101928;-51
2022/04/26 11:35:34;;;;;;;3.03;2.72;;;;;;;14.58;65.95;100754.06;5014867;28;102799;-48
2022/04/26 11:38:06;;;;;;;2.30;2.10;;;;;;;14.57;66.16;100747.78;5018913;28;103890;-49
2022/04/26 11:40:36;;;;;;;3.17;2.70;;;;;;;14.56;66.47;100751.59;5016798;28;102331;-48
2022/04/26 11:43:10;;;;;;;2.85;2.63;;;;;;;14.55;66.29;100749.97;5030966;27;101848;-50
2022/04/26 11:45:40;;;;;;;3.03;2.72;;;;;;;14.56;66.32;100751.59;5033166;27;102199;-49
2022/04/26 11:48:11;;;;;;;2.50;2.30;;;;;;;14.55;66.41;100749.97;5021731;28;104128;-48
2022/04/26 11:50:38;;;;;;;3.50;2.80;;;;;;;14.56;66.49;100750.78;5018499;28;102286;-49
2022/04/26 11:53:06;;;;;;;2.80;2.58;;;;;;;14.55;66.54;100744.50;5019577;28;103253;-48
2022/04/26 11:55:35;;;;;;;2.67;2.33;;;;;;;14.55;66.51;100751.91;5031904;28;102224;-48
2022/04/26 11:58:13;;;;;;;2.90;2.30;;;;;;;14.54;66.27;100737.41;5021542;27;103993;-49
2022/04/26 12:00:57;;;;;;;47.47;21.60;;;;;;;14.54;66.30;100748.34;5016404;27;102877;-49
2022/04/26 12:03:25;;;;;;;3.10;2.20;;;;;;;14.53;66.33;100741.22;5018669;28;103762;-49
2022/04/26 12:05:59;;;;;;;2.95;2.40;;;;;;;14.53;66.27;100746.72;5024441;28;102415;-49
2022/04/26 12:08:27;;;;;;;2.58;2.30;;;;;;;14.54;66.21;100751.09;5020787;27;103885;-49
2022/04/26 12:11:15;;;;;;;2.63;2.40;;;;;;;14.53;66.12;100749.44;5017696;27;101932;-48
2022/04/26 12:13:45;;;;;;;2.50;2.22;;;;;;;14.53;66.43;100757.66;5011566;28;102188;-48
2022/04/26 12:16:19;;;;;;;2.88;2.65;;;;;;;14.52;66.17;100756.03;5017251;28;103742;-49
2022/04/26 12:18:48;;;;;;;2.63;2.42;;;;;;;14.52;66.42;100753.31;5023638;27;103898;-48
2022/04/26 12:21:14;;;;;;;2.70;2.30;;;;;;;14.52;66.41;100742.34;5026447;27;101959;-49
2022/04/26 12:23:41;;;;;;;2.83;2.20;;;;;;;14.52;66.32;100745.09;5012220;28;102143;-49
2022/04/26 12:26:09;;;;;;;4.15;3.10;;;;;;;14.51;66.26;100751.69;5023682;28;102162;-49
2022/04/26 12:28:47;;;;;;;2.10;1.92;;;;;;;14.51;66.10;100746.22;5026427;28;103866;-49
2022/04/26 12:31:22;;;;;;;3.13;2.10;;;;;;;14.52;66.08;100744.28;5014305;27;102475;-49
2022/04/26 12:34:12;;;;;;;2.03;1.92;;;;;;;14.51;66.30;100748.94;5012063;28;102155;-49
2022/04/26 12:36:59;;;;;;;2.28;2.08;;;;;;;14.51;66.59;100746.22;5013299;28;102031;-48
2022/04/26 12:39:28;;;;;;;2.40;2.20;;;;;;;14.51;66.08;100743.47;5011480;28;103884;-48
2022/04/26 12:41:56;;;;;;;2.13;1.98;;;;;;;14.51;66.38;100754.44;5017225;28;102557;-48
2022/04/26 12:44:25;;;;;;;2.63;2.42;;;;;;;14.51;66.05;100742.66;5016279;27;102640;-48
2022/04/26 12:52:43;;;;;;;2.20;1.98;;;;;;;14.49;66.13;100729.22;5031985;28;102357;-49
2022/04/26 12:55:25;;;;;;;2.50;2.30;;;;;;;14.49;66.18;100734.69;5031995;27;102349;-49
2022/04/26 12:57:52;;;;;;;2.30;2.10;;;;;;;14.49;66.22;100734.69;5015691;27;103029;-49
2022/04/26 13:00:26;;;;;;;3.55;2.25;;;;;;;14.48;66.27;100733.06;5019142;27;103986;-48
2022/04/26 13:02:55;;;;;;;3.20;2.40;;;;;;;14.50;66.40;100741.03;5016861;28;102177;-48
2022/04/26 13:05:21;;;;;;;2.55;1.92;;;;;;;14.48;66.31;100735.81;5032159;28;101901;-48
2022/04/26 13:07:53;;;;;;;2.30;2.10;;;;;;;14.48;66.28;100727.59;5027874;27;102467;-48
2022/04/26 13:10:20;;;;;;;3.17;2.45;;;;;;;14.48;66.43;100727.59;5011011;28;104075;-48
2022/04/26 13:12:47;;;;;;;2.00;1.90;;;;;;;14.49;66.55;100736.63;5011886;28;102174;-48
2022/04/26 13:15:15;;;;;;;2.53;2.15;;;;;;;14.49;66.21;100733.88;5022185;28;102052;-48
2022/04/26 13:17:49;;;;;;;2.53;2.17;;;;;;;14.47;66.16;100736.13;5029309;27;102437;-48
2022/04/26 13:20:16;;;;;;;2.53;2.33;;;;;;;14.49;66.42;100739.38;5013202;27;104162;-48
2022/04/26 13:22:42;;;;;;;2.30;2.10;;;;;;;14.48;66.20;100733.06;5011802;28;101853;-49
2022/04/26 13:25:09;;;;;;;3.10;2.33;;;;;;;14.47;66.27;100727.91;5015562;28;102507;-49
2022/04/26 13:27:40;;;;;;;2.30;2.10;;;;;;;14.47;66.49;100727.91;5017519;28;102468;-48
2022/04/26 13:30:08;;;;;;;2.67;2.05;;;;;;;14.47;66.48;100731.47;5010408;28;104089;-49
2022/04/26 13:32:34;;;;;;;1.95;1.85;;;;;;;14.47;66.12;100736.94;5030296;27;102324;-48
2022/04/26 13:35:05;;;;;;;2.40;2.20;;;;;;;14.48;66.24;100735.81;5011856;28;102419;-49
2022/04/26 13:37:32;;;;;;;2.03;1.83;;;;;;;14.47;66.18;100731.47;5019289;28;102244;-49
2022/04/26 13:40:02;;;;;;;2.35;2.15;;;;;;;14.48;66.03;100744.03;5018987;27;104429;-49
2022/04/26 13:42:35;;;;;;;2.30;2.10;;;;;;;14.47;66.12;100750.63;5011001;28;102113;-49
2022/04/26 13:45:03;;;;;;;2.30;2.10;;;;;;;14.46;66.35;100735.31;5026768;27;102278;-50
2022/04/26 13:47:30;;;;;;;2.53;2.28;;;;;;;14.47;66.14;100736.94;5027594;27;102129;-49
2022/04/26 13:50:04;;;;;;;2.22;2.03;;;;;;;14.46;66.39;100739.94;5013525;27;104064;-49
2022/04/26 13:52:33;;;;;;;2.13;1.92;;;;;;;14.46;66.15;100740.78;5019960;28;102061;-48
2022/04/26 13:54:59;;;;;;;2.13;2.03;;;;;;;14.46;66.18;100737.22;5019801;28;102464;-48
2022/04/26 13:57:28;;;;;;;2.40;2.20;;;;;;;14.45;66.17;100750.09;5017584;27;102521;-48
2022/04/26 13:59:54;;;;;;;1.95;1.75;;;;;;;14.46;66.36;100745.44;5030542;28;103595;-49
2022/04/26 14:02:21;;;;;;;2.33;2.13;;;;;;;14.45;66.17;100749.28;5024549;27;101857;-49
2022/04/26 14:04:48;;;;;;;2.92;2.20;;;;;;;14.46;66.27;100746.28;5011175;28;102130;-50
2022/04/26 14:07:20;;;;;;;2.03;1.83;;;;;;;14.46;66.33;100746.28;5030228;28;102120;-51
2022/04/26 14:10:07;;;;;;;2.60;2.10;;;;;;;14.45;66.10;100739.13;5014980;27;105009;-51
2022/04/26 14:12:36;;;;;;;2.58;1.98;;;;;;;14.46;65.99;100751.75;5010835;28;102005;-48
2022/04/26 14:23:52;;;;;;;2.00;1.90;;;;;;;14.44;66.28;100745.75;5003381;28;102583;-49
2022/04/26 14:26:20;;;;;;;1.98;1.85;;;;;;;14.43;66.28;100747.66;5003232;28;102395;-49
2022/04/26 14:28:46;;;;;;;2.83;2.10;;;;;;;14.45;66.30;100739.13;5012032;28;102178;-51
2022/04/26 14:31:13;;;;;;;2.05;1.90;;;;;;;14.43;66.50;100744.13;5012533;27;104140;-49
2022/04/26 14:33:42;;;;;;;2.20;1.98;;;;;;;14.43;66.01;100742.19;5025784;27;102137;-49
2022/04/26 14:36:09;;;;;;;2.25;2.05;;;;;;;14.44;66.39;100751.22;5019955;27;102397;-49
2022/04/26 14:38:36;;;;;;;2.40;2.20;;;;;;;14.43;66.19;100750.41;5015047;28;102700;-49
2022/04/26 14:41:06;;;;;;;1.80;1.70;;;;;;;14.44;66.43;100753.94;5012039;27;103991;-49
2022/04/26 14:43:32;;;;;;;2.00;1.80;;;;;;;14.43;66.20;100753.16;5018193;28;102367;-51
2022/04/26 14:45:59;;;;;;;2.20;2.00;;;;;;;14.43;66.29;100746.84;5015661;27;103645;-49
2022/04/26 14:48:30;;;;;;;1.80;1.70;;;;;;;14.43;66.43;100752.34;5019691;28;102756;-50
2022/04/26 14:50:56;;;;;;;1.90;1.80;;;;;;;14.42;66.31;100757.00;5010910;28;103975;-50
2022/04/26 14:53:23;;;;;;;1.98;1.88;;;;;;;14.44;66.34;100770.38;5010465;28;102390;-49
2022/04/26 14:55:53;;;;;;;1.88;1.77;;;;;;;14.42;66.38;100767.94;5011827;28;102261;-49
2022/04/26 14:58:20;;;;;;;2.45;2.13;;;;;;;14.41;66.02;100765.50;5030900;27;102902;-48
2022/04/26 15:00:47;;;;;;;2.13;1.92;;;;;;;14.42;66.35;100759.75;5028330;27;103939;-48
2022/04/26 15:03:14;;;;;;;1.80;1.70;;;;;;;14.42;66.01;100756.16;5032454;28;102586;-48
2022/04/26 15:05:42;;;;;;;3.53;1.65;;;;;;;14.42;66.39;100758.91;5025679;27;102329;-48
2022/04/26 15:10:54;;;;;;;1.77;1.67;;;;;;;14.41;66.17;100765.50;5033498;27;104116;-50
2022/04/26 15:18:54;;;;;;;2.10;1.90;;;;;;;14.40;66.34;100761.94;5027975;28;102551;-48
2022/04/26 15:21:24;;;;;;;2.63;1.60;;;;;;;14.41;66.11;100770.97;5021945;27;104118;-48
2022/04/26 15:23:53;;;;;;;1.70;1.50;;;;;;;14.40;66.23;100775.63;5013454;28;102163;-49
2022/04/26 15:26:21;;;;;;;2.30;2.10;;;;;;;14.39;66.28;100768.53;5019410;28;101990;-50
2022/04/26 15:28:49;;;;;;;2.22;1.92;;;;;;;14.41;66.42;100776.44;5024765;28;103693;-49
2022/04/26 15:31:18;;;;;;;2.50;2.30;;;;;;;14.40;66.12;100781.09;4982601;28;103835;-49
2022/04/26 15:33:48;;;;;;;2.97;2.38;;;;;;;14.40;66.04;100772.09;4991066;28;102396;-49
2022/04/26 15:36:15;;;;;;;3.45;2.65;;;;;;;14.39;66.41;100773.19;4977915;28;103965;-49
2022/04/26 15:38:43;;;;;;;3.85;2.70;;;;;;;14.38;66.15;100777.03;4985254;28;102462;-49
2022/04/26 15:41:11;;;;;;;;;;;;;;;14.41;66.00;100787.41;4982824;28;103958;-48
2022/04/26 15:43:39;;;;;;;3.95;2.53;;;;;;;14.40;66.35;100783.03;4974959;28;102535;-48
2022/04/26 15:46:09;;;;;;;2.73;2.43;;;;;;;14.39;66.47;100795.09;4986239;28;102403;-48